Time;durP1;ratioP1;P1;durP2;ratioP2;P2;SDS_P1;SDS_P2;PMS_P1;PMS_P2;Temp;Humidity;BMP_temperature;BMP_pressure;BME280_temperature;BME280_humidity;BME280_pressure;Samples;Min_cycle;Max_cycle;Signal;HPM_P1;HPM_P2
2022/09/25 00:01:29;;;;;;;;;;;;;;;-142.75;100.00;77556.63;5054717;28;20409;-68
2022/09/25 00:03:54;;;;;;;;;;;;;;;-142.75;100.00;77552.69;5036809;28;19962;-68
2022/09/25 00:06:21;;;;;;;;;;;;;;;-142.75;100.00;77558.59;5054579;28;19955;-68
2022/09/25 00:08:47;;;;;;;;;;;;;;;-142.75;100.00;77566.47;5054333;28;19917;-68
2022/09/25 00:11:13;;;;;;;;;;;;;;;-142.75;100.00;77572.38;5054572;28;19959;-68
2022/09/25 00:13:39;;;;;;;;;;;;;;;-142.75;100.00;77582.22;5054617;28;20393;-68
2022/09/25 00:16:05;;;;;;;;;;;;;;;-142.75;100.00;77582.22;5054435;28;19913;-68
2022/09/25 00:21:16;;;;;;;;;;;;;;;-142.75;100.00;77596.00;5054642;28;19978;-68
2022/09/25 00:23:43;;;;;;;;;;;;;;;-142.75;100.00;77605.84;5036562;28;19912;-69
2022/09/25 00:26:08;;;;;;;;;;;;;;;-142.75;100.00;77607.81;5054320;28;19959;-69
2022/09/25 00:28:37;;;;;;;;;;;;;;;-142.75;100.00;77625.53;5054184;28;19984;-70
2022/09/25 00:31:04;;;;;;;;;;;;;;;-142.75;100.00;77617.66;5036379;28;19913;-68
2022/09/25 00:33:30;;;;;;;;;;;;;;;-142.75;100.00;77625.53;5054163;28;19913;-68
2022/09/25 00:35:59;;;;;;;;;;;;;;;-142.75;100.00;77613.72;5054098;28;19920;-68
2022/09/25 00:38:24;;;;;;;;;;;;;;;-142.75;100.00;77617.66;5053703;28;19924;-68
2022/09/25 00:40:49;;;;;;;;;;;;;;;-142.75;100.00;77609.78;5054046;28;19928;-68
2022/09/25 00:43:32;;;;;;;;;;;;;;;-142.75;100.00;77609.78;5054040;28;19913;-68
2022/09/25 00:45:57;;;;;;;;;;;;;;;-142.75;100.00;77609.78;5053895;28;20386;-68
2022/09/25 00:48:23;;;;;;;;;;;;;;;-142.75;100.00;77617.66;5053689;28;19913;-69
2022/09/25 00:50:52;;;;;;;;;;;;;;;-142.75;100.00;77609.78;5070437;22;20941;-66
2022/09/25 00:53:20;;;;;;;;;;;;;;;-142.75;100.00;77609.78;5072429;28;19956;-66
2022/09/25 00:55:45;;;;;;;;;;;;;;;-142.75;100.00;77621.59;5073049;28;19919;-66
2022/09/25 00:58:13;;;;;;;;;;;;;;;-142.75;100.00;77619.63;5073429;28;20400;-66
2022/09/25 01:00:38;;;;;;;;;;;;;;;-142.75;100.00;77617.66;5073487;28;19912;-66
2022/09/25 01:03:04;;;;;;;;;;;;;;;-142.75;100.00;77619.63;5073635;28;19935;-66
2022/09/25 01:05:34;;;;;;;;;;;;;;;-142.75;100.00;77621.59;5055641;28;19920;-66
2022/09/25 01:08:00;;;;;;;;;;;;;;;-142.75;100.00;77615.69;5073270;28;19912;-66
2022/09/25 01:10:26;;;;;;;;;;;;;;;-142.75;100.00;77623.56;5073226;28;19981;-66
2022/09/25 01:12:52;;;;;;;;;;;;;;;-142.75;100.00;77619.63;5073415;28;20369;-66
2022/09/25 01:15:19;;;;;;;;;;;;;;;-142.75;100.00;77607.81;5073313;28;19912;-66
2022/09/25 01:17:51;;;;;;;;;;;;;;;-142.75;100.00;77617.66;5072952;28;20011;-66
2022/09/25 01:20:39;;;;;;;;;;;;;;;-142.75;100.00;77609.78;5073293;28;19923;-66
2022/09/25 01:23:04;;;;;;;;;;;;;;;-142.75;100.00;77594.03;5073291;28;20301;-66
2022/09/25 01:25:44;;;;;;;;;;;;;;;-142.75;100.00;77592.06;5073160;28;19913;-66
2022/09/25 01:28:13;;;;;;;;;;;;;;;-142.75;100.00;77590.09;5072794;28;19913;-66
2022/09/25 01:30:41;;;;;;;;;;;;;;;-142.75;100.00;77599.94;5073035;28;20408;-66
2022/09/25 01:33:12;;;;;;;;;;;;;;;-142.75;100.00;77594.03;5072959;28;19924;-66
2022/09/25 01:35:47;;;;;;;;;;;;;;;-142.75;100.00;77588.13;5073073;28;19913;-67
2022/09/25 01:38:19;;;;;;;;;;;;;;;-142.75;100.00;77590.09;5072485;28;19916;-66
2022/09/25 01:40:48;;;;;;;;;;;;;;;-142.75;100.00;77592.06;5072882;28;19955;-66
2022/09/25 01:43:17;;;;;;;;;;;;;;;-142.75;100.00;77596.00;5072842;28;19916;-66
2022/09/25 01:45:49;;;;;;;;;;;;;;;-142.75;100.00;77615.69;5072802;28;19920;-66
2022/09/25 01:48:17;;;;;;;;;;;;;;;-142.75;100.00;77627.50;5072422;28;19957;-66
2022/09/25 01:50:46;;;;;;;;;;;;;;;-142.75;100.00;77629.47;5072491;28;19958;-66
2022/09/25 01:53:13;;;;;;;;;;;;;;;-142.75;100.00;77629.47;5072711;28;19912;-66
2022/09/25 01:55:46;;;;;;;;;;;;;;;-142.75;100.00;77629.47;5054749;28;19913;-66
2022/09/25 01:58:18;;;;;;;;;;;;;;;-142.75;100.00;77623.56;5072214;28;19916;-66
2022/09/25 02:00:49;;;;;;;;;;;;;;;-142.75;100.00;77625.53;5072554;28;19913;-66
2022/09/25 02:03:22;;;;;;;;;;;;;;;-142.75;100.00;77641.28;5072446;28;19917;-66
2022/09/25 02:05:51;;;;;;;;;;;;;;;-142.75;100.00;77639.31;5072562;28;19917;-65
2022/09/25 02:08:25;;;;;;;;;;;;;;;-142.75;100.00;77621.59;5072267;28;19916;-66
2022/09/25 02:10:54;;;;;;;;;;;;;;;-142.75;100.00;77625.53;5072364;28;19913;-66
2022/09/25 02:13:22;;;;;;;;;;;;;;;-142.75;100.00;77623.56;5072429;28;19912;-66
2022/09/25 02:15:47;;;;;;;;;;;;;;;-142.75;100.00;77611.75;5072296;28;20394;-66
2022/09/25 02:21:18;;;;;;;;;;;;;;;-142.75;100.00;77617.66;5072208;28;19982;-65
2022/09/25 02:23:52;;;;;;;;;;;;;;;-142.75;100.00;77619.63;5072308;28;19959;-65
2022/09/25 02:26:31;;;;;;;;;;;;;;;-142.75;100.00;77609.78;5072242;28;19974;-66
2022/09/25 02:28:57;;;;;;;;;;;;;;;-142.75;100.00;77617.66;5072103;28;19913;-66
2022/09/25 02:31:27;;;;;;;;;;;;;;;-142.75;100.00;77609.78;5072102;28;19912;-65
2022/09/25 02:33:52;;;;;;;;;;;;;;;-142.75;100.00;77601.91;5072182;28;19913;-66
2022/09/25 02:36:19;;;;;;;;;;;;;;;-142.75;100.00;77586.16;5072069;28;19983;-66
2022/09/25 02:38:45;;;;;;;;;;;;;;;-142.75;100.00;77586.16;5071768;28;20386;-66
2022/09/25 02:41:16;;;;;;;;;;;;;;;-142.75;100.00;77617.66;5064059;28;20283;-66
2022/09/25 02:43:49;;;;;;;;;;;;;;;-142.75;100.00;77627.50;5052114;28;19959;-66
2022/09/25 02:46:14;;;;;;;;;;;;;;;-142.75;100.00;77629.47;5051985;28;20283;-65
2022/09/25 02:48:57;;;;;;;;;;;;;;;-142.75;100.00;77625.53;5051758;28;20026;-65
2022/09/25 02:51:25;;;;;;;;;;;;;;;-142.75;100.00;77641.28;5051795;28;19917;-65
2022/09/25 02:54:00;;;;;;;;;;;;;;;-142.75;100.00;77653.09;5052028;28;19920;-65
2022/09/25 02:56:34;;;;;;;;;;;;;;;-142.75;100.00;77639.31;5051754;28;19928;-65
2022/09/25 02:59:12;;;;;;;;;;;;;;;-142.75;100.00;77625.53;5051935;28;19913;-65
2022/09/25 03:01:40;;;;;;;;;;;;;;;-142.75;100.00;77625.53;5051809;28;19967;-65
2022/09/25 03:04:06;;;;;;;;;;;;;;;-142.75;100.00;77633.41;5051964;28;20322;-65
2022/09/25 03:06:31;;;;;;;;;;;;;;;-142.75;100.00;77639.31;5051726;28;20011;-65
2022/09/25 03:08:57;;;;;;;;;;;;;;;-142.75;100.00;77633.41;5051651;28;20003;-65
2022/09/25 03:11:25;;;;;;;;;;;;;;;-142.75;100.00;77651.13;5058268;28;19948;-65
2022/09/25 03:13:55;;;;;;;;;;;;;;;-142.75;100.00;77653.09;5071850;28;19913;-65
2022/09/25 03:16:29;;;;;;;;;;;;;;;-142.75;100.00;77657.03;5071526;28;19965;-65
2022/09/25 03:18:54;;;;;;;;;;;;;;;-142.75;100.00;77651.13;5071635;28;19919;-65
2022/09/25 03:21:19;;;;;;;;;;;;;;;-142.75;100.00;77649.16;5071665;28;20007;-65
2022/09/25 03:23:44;;;;;;;;;;;;;;;-142.75;100.00;77647.19;5071827;28;19979;-65
2022/09/25 03:26:10;;;;;;;;;;;;;;;-142.75;100.00;77627.50;5071717;28;20450;-65
2022/09/25 03:28:35;;;;;;;;;;;;;;;-142.75;100.00;77613.72;5071382;28;19920;-65
2022/09/25 03:31:00;;;;;;;;;;;;;;;-142.75;100.00;77601.91;5071586;28;20366;-65
2022/09/25 03:33:27;;;;;;;;;;;;;;;-142.75;100.00;77601.91;5073147;28;20001;-65
2022/09/25 03:36:03;;;;;;;;;;;;;;;-142.75;100.00;77592.06;5057341;28;19919;-65
2022/09/25 03:38:29;;;;;;;;;;;;;;;-142.75;100.00;77590.09;5074869;28;19917;-66
2022/09/25 03:40:54;;;;;;;;;;;;;;;-142.75;100.00;77576.31;5075201;28;20382;-65
2022/09/25 03:43:19;;;;;;;;;;;;;;;-142.75;100.00;77576.31;5075043;28;19965;-65
2022/09/25 03:45:44;;;;;;;;;;;;;;;-142.75;100.00;77562.53;5075089;28;19966;-65
2022/09/25 03:48:09;;;;;;;;;;;;;;;-142.75;100.00;77558.59;5074875;28;19966;-65
2022/09/25 03:50:35;;;;;;;;;;;;;;;-142.75;100.00;77550.72;5074866;28;20294;-65
2022/09/25 03:53:00;;;;;;;;;;;;;;;-142.75;100.00;77538.91;5074964;28;19913;-66
2022/09/25 03:55:25;;;;;;;;;;;;;;;-142.75;100.00;77531.03;5074994;28;19947;-65
2022/09/25 03:57:50;;;;;;;;;;;;;;;-142.75;100.00;77527.09;5074387;28;20019;-66
2022/09/25 04:00:16;;;;;;;;;;;;;;;-142.75;100.00;77519.22;5074790;28;19977;-65
2022/09/25 04:02:41;;;;;;;;;;;;;;;-142.75;100.00;77515.28;5074852;28;19919;-65
2022/09/25 04:05:08;;;;;;;;;;;;;;;-142.75;100.00;77507.41;5074768;28;19912;-66
2022/09/25 04:07:33;;;;;;;;;;;;;;;-142.75;100.00;77509.38;5074510;28;20397;-65
2022/09/25 04:09:58;;;;;;;;;;;;;;;-142.75;100.00;77509.38;5074709;28;19912;-65
2022/09/25 04:12:23;;;;;;;;;;;;;;;-142.75;100.00;77511.34;5056554;28;19923;-65
2022/09/25 04:14:49;;;;;;;;;;;;;;;-142.75;100.00;77503.47;5074622;28;19912;-65
2022/09/25 04:17:15;;;;;;;;;;;;;;;-142.75;100.00;77503.47;5074447;28;20267;-65
2022/09/25 04:19:40;;;;;;;;;;;;;;;-142.75;100.00;77497.56;5074493;28;20023;-65
2022/09/25 04:22:05;;;;;;;;;;;;;;;-142.75;100.00;77491.66;5074448;28;19974;-65
2022/09/25 04:24:48;;;;;;;;;;;;;;;-142.75;100.00;77491.66;5074404;28;19999;-65
2022/09/25 04:27:14;;;;;;;;;;;;;;;-142.75;100.00;77495.59;5074244;28;19913;-66
2022/09/25 04:29:41;;;;;;;;;;;;;;;-142.75;100.00;77507.41;5074398;28;19919;-66
2022/09/25 04:34:50;;;;;;;;;;;;;;;-142.75;100.00;77497.56;5074682;28;19919;-66
2022/09/25 04:37:15;;;;;;;;;;;;;;;-142.75;100.00;77507.41;5073790;28;20007;-66
2022/09/25 04:39:40;;;;;;;;;;;;;;;-142.75;100.00;77513.31;5074094;28;20423;-66
2022/09/25 04:42:06;;;;;;;;;;;;;;;-142.75;100.00;77519.22;5056041;28;19916;-66
2022/09/25 04:44:31;;;;;;;;;;;;;;;-142.75;100.00;77509.38;5073402;28;20286;-65
2022/09/25 04:46:56;;;;;;;;;;;;;;;-142.75;100.00;77523.16;5073743;28;20398;-65
2022/09/25 04:49:21;;;;;;;;;;;;;;;-142.75;100.00;77531.03;5073974;28;20366;-65
2022/09/25 04:51:47;;;;;;;;;;;;;;;-142.75;100.00;77523.16;5073978;28;19927;-66
2022/09/25 04:54:13;;;;;;;;;;;;;;;-142.75;100.00;77527.09;5073840;28;19920;-65
2022/09/25 04:56:39;;;;;;;;;;;;;;;-142.75;100.00;77554.66;5073618;28;19916;-66
2022/09/25 04:59:04;;;;;;;;;;;;;;;-142.75;100.00;77570.41;5073700;28;19913;-65
2022/09/25 05:01:29;;;;;;;;;;;;;;;-142.75;100.00;77592.06;5073634;28;20554;-66
2022/09/25 05:03:54;;;;;;;;;;;;;;;-142.75;100.00;77568.44;5073688;28;19913;-66
2022/09/25 05:06:20;;;;;;;;;;;;;;;-142.75;100.00;77578.28;5073540;28;19993;-66
2022/09/25 05:08:48;;;;;;;;;;;;;;;-142.75;100.00;77590.09;5055226;28;19919;-66
2022/09/25 05:11:13;;;;;;;;;;;;;;;-142.75;100.00;77582.22;5073405;28;19963;-66
2022/09/25 05:13:39;;;;;;;;;;;;;;;-142.75;100.00;77580.25;5073447;28;19989;-65
2022/09/25 05:16:05;;;;;;;;;;;;;;;-142.75;100.00;77574.34;5073405;28;19919;-66
2022/09/25 05:18:30;;;;;;;;;;;;;;;-142.75;100.00;77580.25;5073002;28;19924;-66
2022/09/25 05:20:56;;;;;;;;;;;;;;;-142.75;100.00;77578.28;5073222;28;20332;-66
2022/09/25 05:23:22;;;;;;;;;;;;;;;-142.75;100.00;77582.22;5073135;28;19939;-66
2022/09/25 05:26:00;;;;;;;;;;;;;;;-142.75;100.00;77586.16;5073243;28;20583;-66
2022/09/25 05:28:26;;;;;;;;;;;;;;;-142.75;100.00;77588.13;5072870;28;20026;-65
2022/09/25 05:30:51;;;;;;;;;;;;;;;-142.75;100.00;77590.09;5073075;28;19912;-66
2022/09/25 05:33:17;;;;;;;;;;;;;;;-142.75;100.00;77588.13;5073033;28;19916;-65
2022/09/25 05:35:43;;;;;;;;;;;;;;;-142.75;100.00;77580.25;5072957;28;20510;-66
2022/09/25 05:38:08;;;;;;;;;;;;;;;-142.75;100.00;77568.44;5072804;28;19920;-65
2022/09/25 05:40:33;;;;;;;;;;;;;;;-142.75;100.00;77574.34;5072826;28;20408;-66
2022/09/25 05:42:59;;;;;;;;;;;;;;;-142.75;100.00;77562.53;5072835;28;19912;-66
2022/09/25 05:45:24;;;;;;;;;;;;;;;-142.75;100.00;77548.75;5072821;28;19912;-66
2022/09/25 05:47:59;;;;;;;;;;;;;;;-142.75;100.00;77542.84;5072496;28;19956;-66
2022/09/25 05:50:24;;;;;;;;;;;;;;;-142.75;100.00;77527.09;5072543;28;20271;-65
2022/09/25 05:52:54;;;;;;;;;;;;;;;-142.75;100.00;77525.13;5072738;28;19912;-66
2022/09/25 05:55:19;;;;;;;;;;;;;;;-142.75;100.00;77519.22;5072710;28;20322;-66
2022/09/25 05:57:44;;;;;;;;;;;;;;;-142.75;100.00;77517.25;5071307;28;19961;-67
2022/09/25 06:00:11;;;;;;;;;;;;;;;-142.75;100.00;77505.44;5072570;28;19927;-66
2022/09/25 06:02:36;;;;;;;;;;;;;;;-142.75;100.00;77493.63;5072659;28;20015;-65
2022/09/25 06:05:01;;;;;;;;;;;;;;;-142.75;100.00;77489.69;5072407;28;19955;-65
2022/09/25 06:07:27;;;;;;;;;;;;;;;-142.75;100.00;77487.72;5072236;28;20400;-65
2022/09/25 06:09:52;;;;;;;;;;;;;;;-142.75;100.00;77495.59;5072453;28;20340;-65
2022/09/25 06:12:17;;;;;;;;;;;;;;;-142.75;100.00;77493.63;5054406;28;19920;-66
2022/09/25 06:14:42;;;;;;;;;;;;;;;-142.75;100.00;77499.53;5072397;28;19913;-65
2022/09/25 06:17:10;;;;;;;;;;;;;;;-142.75;100.00;77507.41;5072027;28;20011;-66
2022/09/25 06:19:36;;;;;;;;;;;;;;;-142.75;100.00;77499.53;5072146;28;20034;-65
2022/09/25 06:22:01;;;;;;;;;;;;;;;-142.75;100.00;77491.66;5054326;28;19912;-65
2022/09/25 06:24:26;;;;;;;;;;;;;;;-142.75;100.00;77483.78;5054286;28;20401;-65
2022/09/25 06:26:51;;;;;;;;;;;;;;;-142.75;100.00;77479.84;5071970;28;19919;-66
2022/09/25 06:29:17;;;;;;;;;;;;;;;-142.75;100.00;77464.09;5072243;28;19919;-65
2022/09/25 06:31:42;;;;;;;;;;;;;;;-142.75;100.00;77440.44;5072173;28;19982;-65
2022/09/25 06:34:08;;;;;;;;;;;;;;;-142.75;100.00;77420.75;5072068;28;19965;-65
2022/09/25 06:36:33;;;;;;;;;;;;;;;-142.75;100.00;77412.88;5071912;28;19919;-66
2022/09/25 06:38:58;;;;;;;;;;;;;;;-142.75;100.00;77395.16;5072227;28;20275;-65
2022/09/25 06:41:23;;;;;;;;;;;;;;;-142.75;100.00;77389.25;5072013;28;20009;-66
2022/09/25 06:43:51;;;;;;;;;;;;;;;-142.75;100.00;77381.38;5072171;28;19912;-66
2022/09/25 06:46:18;;;;;;;;;;;;;;;-142.75;100.00;77385.31;5072019;28;20405;-66
2022/09/25 06:48:48;;;;;;;;;;;;;;;-142.75;100.00;77385.31;5071724;28;19916;-65
2022/09/25 06:51:14;;;;;;;;;;;;;;;-142.75;100.00;77371.53;5083980;22;19925;-67
2022/09/25 06:53:39;;;;;;;;;;;;;;;-142.75;100.00;77365.63;5052949;28;19931;-68
2022/09/25 06:56:04;;;;;;;;;;;;;;;-142.75;100.00;77359.72;5070715;28;19989;-69
2022/09/25 06:58:30;;;;;;;;;;;;;;;-142.75;100.00;77349.88;5053569;28;20475;-68
2022/09/25 07:00:56;;;;;;;;;;;;;;;-142.75;100.00;77342.00;5072063;28;19912;-68
2022/09/25 07:06:06;;;;;;;;;;;;;;;-142.75;100.00;77326.25;5072291;28;19965;-68
2022/09/25 07:08:31;;;;;;;;;;;;;;;-142.75;100.00;77324.28;5073498;28;20007;-68
2022/09/25 07:10:57;;;;;;;;;;;;;;;-142.75;100.00;77312.47;5073277;28;20405;-68
2022/09/25 07:13:27;;;;;;;;;;;;;;;-142.75;100.00;77314.44;5035859;28;19924;-68
2022/09/25 07:16:12;;;;;;;;;;;;;;;-142.75;100.00;77298.69;5035807;28;20006;-68
2022/09/25 07:18:38;;;;;;;;;;;;;;;-142.75;100.00;77290.81;5035571;28;19960;-67
2022/09/25 07:21:06;;;;;;;;;;;;;;;-142.75;100.00;77282.94;5035729;28;20059;-67
2022/09/25 07:23:32;;;;;;;;;;;;;;;-142.75;100.00;77273.09;5035810;28;20453;-68
2022/09/25 07:26:11;;;;;;;;;;;;;;;-142.75;100.00;77265.22;5036100;28;19913;-67
2022/09/25 07:28:38;;;;;;;;;;;;;;;-142.75;100.00;77243.56;5018571;28;19953;-68
2022/09/25 07:31:14;;;;;;;;;;;;;;;-142.75;100.00;77243.56;5018553;28;19920;-68
2022/09/25 07:33:39;;;;;;;;;;;;;;;-142.75;100.00;77233.72;5035985;28;19913;-67
2022/09/25 07:36:05;;;;;;;;;;;;;;;-142.75;100.00;77229.78;5035447;28;20417;-68
2022/09/25 07:38:30;;;;;;;;;;;;;;;-142.75;100.00;77219.94;5017199;28;20334;-67
2022/09/25 07:40:56;;;;;;;;;;;;;;;-142.75;100.00;77206.16;5035155;28;19959;-68
2022/09/25 07:43:21;;;;;;;;;;;;;;;-142.75;100.00;77186.47;5037823;28;19913;-68
2022/09/25 07:45:53;;;;;;;;;;;;;;;-142.75;100.00;77172.69;5037853;28;20416;-68
2022/09/25 07:48:22;;;;;;;;;;;;;;;-142.75;100.00;77153.00;5035031;28;19913;-68
2022/09/25 07:50:48;;;;;;;;;;;;;;;-142.75;100.00;77131.34;5035054;28;20007;-68
2022/09/25 07:53:14;;;;;;;;;;;;;;;-142.75;100.00;77113.63;5034998;28;20368;-68
2022/09/25 07:55:40;;;;;;;;;;;;;;;-142.75;100.00;77058.50;5035055;28;19913;-68
2022/09/25 07:58:05;;;;;;;;;;;;;;;-142.75;100.00;76997.47;5034900;28;19917;-66
2022/09/25 08:00:30;;;;;;;;;;;;;;;-142.75;100.00;76934.47;5035749;28;20000;-68
2022/09/25 08:02:57;;;;;;;;;;;;;;;-142.75;100.00;76875.41;5034882;28;19920;-68
2022/09/25 08:05:23;;;;;;;;;;;;;;;-142.75;100.00;76820.28;5035000;28;19913;-66
2022/09/25 08:07:48;;;;;;;;;;;;;;;-142.75;100.00;76790.78;5034544;28;19913;-69
2022/09/25 08:10:13;;;;;;;;;;;;;;;-142.75;100.00;76759.28;5016923;28;19913;-68
2022/09/25 08:12:39;;;;;;;;;;;;;;;-142.75;100.00;76723.84;5034788;28;19957;-68
2022/09/25 08:15:05;;;;;;;;;;;;;;;-142.75;100.00;76684.47;5034706;28;19919;-68
2022/09/25 08:17:30;;;;;;;;;;;;;;;-142.75;100.00;76668.72;5034390;28;20359;-69
2022/09/25 08:19:55;;;;;;;;;;;;;;;-142.75;100.00;76698.25;5033588;28;19913;-69
2022/09/25 08:22:22;;;;;;;;;;;;;;;-142.75;100.00;76727.78;5033763;28;20390;-68
2022/09/25 08:24:48;;;;;;;;;;;;;;;-142.75;100.00;76676.59;5034936;28;19979;-69
2022/09/25 08:27:13;;;;;;;;;;;;;;;-142.75;100.00;76639.19;5034184;28;19949;-69
2022/09/25 08:29:39;;;;;;;;;;;;;;;-142.75;100.00;76637.22;5016611;28;19924;-68
2022/09/25 08:32:04;;;;;;;;;;;;;;;-142.75;100.00;76654.94;5034297;28;19913;-70
2022/09/25 08:34:30;;;;;;;;;;;;;;;-142.75;100.00;76678.56;5034235;28;20004;-69
2022/09/25 08:36:56;;;;;;;;;;;;;;;-142.75;100.00;76676.59;5033873;28;20387;-68
2022/09/25 08:39:22;;;;;;;;;;;;;;;-142.75;100.00;76676.59;5044364;28;19921;-69
2022/09/25 08:41:49;;;;;;;;;;;;;;;-142.75;100.00;76708.09;5046826;28;19917;-69
2022/09/25 08:44:14;;;;;;;;;;;;;;;-142.75;100.00;76700.22;5043561;28;19983;-69
2022/09/25 08:49:30;;;;;;;;;;;;;;;-142.75;100.00;76654.94;5051148;28;19924;-69
2022/09/25 08:51:58;;;;;;;;;;;;;;;-142.75;100.00;76652.97;5052284;28;19982;-68
2022/09/25 08:54:29;;;;;;;;;;;;;;;-142.75;100.00;76593.91;5051316;28;19932;-67
2022/09/25 08:57:00;;;;;;;;;;;;;;;-142.75;100.00;76540.75;5052507;28;19952;-70
2022/09/25 08:59:33;;;;;;;;;;;;;;;-142.75;100.00;76487.63;5049952;28;19924;-68
2022/09/25 09:01:59;;;;;;;;;;;;;;;-142.75;100.00;76481.72;5052439;28;19912;-69
2022/09/25 09:04:32;;;;;;;;;;;;;;;-142.75;100.00;76432.50;5033692;28;19996;-69
2022/09/25 09:07:13;;;;;;;;;;;;;;;-142.75;100.00;76420.69;5052133;28;19955;-69
2022/09/25 09:09:51;;;;;;;;;;;;;;;-142.75;100.00;76408.88;5052824;28;19913;-67
2022/09/25 09:12:18;;;;;;;;;;;;;;;-142.75;100.00;76410.84;5050984;28;19972;-69
2022/09/25 09:14:46;;;;;;;;;;;;;;;-142.75;100.00;76416.75;5033416;28;19913;-69
2022/09/25 09:17:17;;;;;;;;;;;;;;;-142.75;100.00;76412.81;5049406;28;19921;-68
2022/09/25 09:19:44;;;;;;;;;;;;;;;-142.75;100.00;76426.59;5050190;28;20574;-69
2022/09/25 09:22:11;;;;;;;;;;;;;;;-142.75;100.00;76452.19;5044237;28;20011;-69
2022/09/25 09:24:42;;;;;;;;;;;;;;;-142.75;100.00;76446.28;5052419;28;19966;-69
2022/09/25 09:27:25;;;;;;;;;;;;;;;-142.75;100.00;76440.38;5052147;28;19940;-69
2022/09/25 09:30:13;;;;;;;;;;;;;;;-142.75;100.00;76442.34;5028091;28;19913;-69
2022/09/25 09:32:46;;;;;;;;;;;;;;;-142.75;100.00;76395.09;5026638;28;19970;-69
2022/09/25 09:35:30;;;;;;;;;;;;;;;-142.75;100.00;76418.72;5050163;28;19920;-69
2022/09/25 09:38:09;;;;;;;;;;;;;;;-142.75;100.00;76377.38;5032322;28;19921;-66
2022/09/25 09:40:53;;;;;;;;;;;;;;;-142.75;100.00;76349.81;5051146;28;19917;-66
2022/09/25 09:43:18;;;;;;;;;;;;;;;-142.75;100.00;76310.47;5022871;28;20022;-70
2022/09/25 09:45:48;;;;;;;;;;;;;;;-142.75;100.00;76251.41;5050261;28;20386;-70
2022/09/25 09:48:28;;;;;;;;;;;;;;;-142.75;100.00;76269.13;5042998;28;19940;-69
2022/09/25 09:50:58;;;;;;;;;;;;;;;-142.75;100.00;76334.09;5031767;28;19920;-69
2022/09/25 09:53:35;;;;;;;;;;;;;;;-142.75;100.00;76408.88;5036901;28;19939;-69
2022/09/25 09:56:09;;;;;;;;;;;;;;;-142.75;100.00;76471.88;5015326;28;20287;-68
2022/09/25 09:58:55;;;;;;;;;;;;;;;-142.75;100.00;76503.38;5014970;28;20276;-67
2022/09/25 10:01:22;;;;;;;;;;;;;;;-142.75;100.00;76548.63;5030870;28;19948;-68
2022/09/25 10:03:48;;;;;;;;;;;;;;;-142.75;100.00;76550.59;5031735;28;19917;-70
2022/09/25 10:06:15;;;;;;;;;;;;;;;-142.75;100.00;76578.16;5031743;28;19913;-69
2022/09/25 10:08:41;;;;;;;;;;;;;;;-142.75;100.00;76615.56;5044153;28;19925;-69
2022/09/25 10:11:16;;;;;;;;;;;;;;;-142.75;100.00;76578.16;5034253;28;19923;-69
2022/09/25 10:13:43;;;;;;;;;;;;;;;-142.75;100.00;76495.50;5033353;28;19939;-68
2022/09/25 10:16:10;;;;;;;;;;;;;;;-142.75;100.00;76448.25;5023928;28;19924;-69
2022/09/25 10:18:45;;;;;;;;;;;;;;;-142.75;100.00;76377.38;5032084;28;19961;-69
2022/09/25 10:21:15;;;;;;;;;;;;;;;-142.75;100.00;76322.28;5032155;28;19967;-68
2022/09/25 10:23:51;;;;;;;;;;;;;;;-142.75;100.00;76263.22;5032392;28;19923;-70
2022/09/25 10:26:32;;;;;;;;;;;;;;;-142.75;92.38;76217.94;5014494;28;19917;-69
2022/09/25 10:28:58;;;;;;;;;;;;;;;-142.75;87.43;76186.47;5032016;28;19921;-69
2022/09/25 10:31:29;;;;;;;;;;;;;;;-142.75;90.73;76143.16;5032118;28;19913;-67
2022/09/25 10:34:00;;;;;;;;;;;;;;;-142.75;86.72;76101.81;5030995;28;20005;-69
2022/09/25 10:36:37;;;;;;;;;;;;;;;-142.75;81.93;76101.81;5012394;28;20295;-69
2022/09/25 10:39:03;;;;;;;;;;;;;;;-142.75;77.59;76093.94;5031088;28;19921;-69
2022/09/25 10:41:31;;;;;;;;;;;;;;;-142.75;80.55;76223.84;5014456;28;20276;-69
2022/09/25 10:43:58;;;;;;;;;;;;;;;-142.75;83.63;76172.69;5031577;28;20379;-69
2022/09/25 10:52:06;;;;;;;;;;;;;;;-142.75;77.92;76097.88;5031669;28;19928;-69
2022/09/25 10:54:32;;;;;;;;;;;;;;;-142.75;79.41;76145.13;5014261;28;19924;-69
2022/09/25 10:56:58;;;;;;;;;;;;;;;-142.75;79.75;76188.44;5031650;28;19923;-69
2022/09/25 10:59:24;;;;;;;;;;;;;;;-142.75;85.16;76247.47;5032033;28;19913;-69
2022/09/25 11:01:50;;;;;;;;;;;;;;;-142.75;86.47;76284.88;5032047;28;19913;-69
2022/09/25 11:04:15;;;;;;;;;;;;;;;-142.75;89.31;76338.03;5032040;28;19920;-69
2022/09/25 11:06:51;;;;;;;;;;;;;;;-142.75;96.48;76391.16;5031653;28;19917;-69
2022/09/25 11:09:18;;;;;;;;;;;;;;;-142.75;100.00;76460.06;5031801;28;19913;-69
2022/09/25 11:11:45;;;;;;;;;;;;;;;-142.75;100.00;76452.19;5031882;28;19919;-69
2022/09/25 11:14:34;;;;;;;;;;;;;;;-142.75;100.00;76519.13;5031893;28;20295;-68
2022/09/25 11:17:08;;;;;;;;;;;;;;;-142.75;100.00;76528.97;5020939;28;19917;-69
2022/09/25 11:19:34;;;;;;;;;;;;;;;-142.75;100.00;76586.03;5031786;28;19917;-68
2022/09/25 11:22:06;;;;;;;;;;;;;;;-142.75;100.00;76631.31;5031731;28;19975;-69
2022/09/25 11:24:40;;;;;;;;;;;;;;;-142.75;100.00;76666.75;5014031;28;20079;-68
2022/09/25 11:27:12;;;;;;;;;;;;;;;-142.75;100.00;76686.44;5031533;28;19948;-69
2022/09/25 11:29:46;;;;;;;;;;;;;;;-142.75;100.00;76706.13;5014094;28;20011;-68
2022/09/25 11:32:30;;;;;;;;;;;;;;;-142.75;100.00;76731.72;5013846;28;20015;-68
2022/09/25 11:35:01;;;;;;;;;;;;;;;-142.75;100.00;76755.34;5013934;28;20371;-68
2022/09/25 11:37:34;;;;;;;;;;;;;;;-142.75;100.00;76735.66;5031325;28;19975;-69
2022/09/25 11:43:04;;;;;;;;;;;;;;;-142.75;100.00;76725.81;5031617;28;19940;-69
2022/09/25 11:45:35;;;;;;;;;;;;;;;-142.75;100.00;76715.97;5013733;28;19936;-68
2022/09/25 11:48:09;;;;;;;;;;;;;;;-142.75;100.00;76698.25;5040215;28;19917;-69
2022/09/25 11:51:00;;;;;;;;;;;;;;;-142.75;100.00;76714.00;5038273;28;19927;-70
2022/09/25 11:53:32;;;;;;;;;;;;;;;-142.75;100.00;76688.41;5014462;28;19924;-69
2022/09/25 11:56:04;;;;;;;;;;;;;;;-142.75;100.00;76572.25;5035556;28;20294;-70
2022/09/25 11:58:38;;;;;;;;;;;;;;;-142.75;100.00;76473.84;5054471;28;19917;-68
2022/09/25 12:01:22;;;;;;;;;;;;;;;-142.75;100.00;76397.06;5054731;28;19919;-69
2022/09/25 12:03:49;;;;;;;;;;;;;;;-142.75;100.00;76377.38;5054602;28;20405;-69
2022/09/25 12:06:18;;;;;;;;;;;;;;;-142.75;100.00;76379.34;5036843;28;19912;-69
2022/09/25 12:09:13;;;;;;;;;;;;;;;-142.75;100.00;76277.00;5054243;28;19943;-68
2022/09/25 12:11:57;;;;;;;;;;;;;;;-142.75;100.00;76223.84;4986034;28;19918;-69
2022/09/25 12:14:35;;;;;;;;;;;;;;;-142.75;100.00;76229.75;5056647;28;19916;-70
2022/09/25 12:17:04;;;;;;;;;;;;;;;-142.75;95.61;76164.81;5056086;28;19916;-68
2022/09/25 12:19:35;;;;;;;;;;;;;;;-142.75;86.44;76188.44;5034933;28;19913;-69
2022/09/25 12:22:20;;;;;;;;;;;;;;;-142.75;88.38;76170.72;5034327;28;19919;-69
2022/09/25 12:24:45;;;;;;;;;;;;;;;-142.75;94.42;76101.81;5016801;28;19920;-69
2022/09/25 12:27:18;;;;;;;;;;;;;;;-142.75;89.44;76070.34;5034062;28;19917;-69
2022/09/25 12:29:44;;;;;;;;;;;;;;;-142.75;89.53;76058.53;5016565;28;19920;-69
2022/09/25 12:32:24;;;;;;;;;;;;;;;-142.75;90.77;76093.94;5034212;28;19913;-68
2022/09/25 12:34:55;;;;;;;;;;;;;;;-142.75;91.81;76263.22;5034137;28;19913;-69
2022/09/25 12:37:42;;;;;;;;;;;;;;;-142.75;99.39;76326.22;5033825;28;19957;-69
2022/09/25 12:40:14;;;;;;;;;;;;;;;-142.75;100.00;76373.44;5016419;28;19913;-69
2022/09/25 12:42:39;;;;;;;;;;;;;;;-142.75;100.00;76294.72;5032314;28;19913;-69
2022/09/25 12:45:19;;;;;;;;;;;;;;;-142.75;92.00;76245.50;5014447;28;20007;-69
2022/09/25 12:47:50;;;;;;;;;;;;;;;-142.75;88.52;76176.63;5015676;28;19936;-69
2022/09/25 12:50:18;;;;;;;;;;;;;;;-142.75;87.68;76164.81;5034037;28;20030;-69